Susquehanna — WDD9976 — position and weather

sailwx.info

Track history (hours):
 
Tides and Currents Weather Stations Pressure Air Temp Water Temp Dewpoint Dewpoint Depression Visibility Wind Speed Wind Dir Waves Ship Positions

Susquehanna

Owner: Vane Line Bunkering, Inc., Baltimore, MD. More information available from US FCC via Universal Licensing System and Coast Guard Vessel Documentation Center.

Last reported at 2015-Jul-29 04:33 UTC. Time now 2015-Jul-29 04:56 UTC.
Position N 38°51' W 074°49'.

Length 28 m; draft 4.2 m.

Type: Tug. MMSI: 367318750.

Date/timePositionNaut miles runAvg speedWind from/ knotsBaromVisibWave heightAir tempDewpointWater temp
2015-Jul-29 04:33N 38°51' W 074°49'11 8.7
2015-Jul-29 03:18N 38°59' W 074°41'10 8.6
2015-Jul-29 02:05N 39°08' W 074°33'5 8.7
2015-Jul-29 01:33N 39°11' W 074°29'9 8.6
2015-Jul-29 00:33N 39°18' W 074°22'8 8.4
2015-Jul-28 23:33N 39°25' W 074°16'10 8.9
2015-Jul-28 22:28N 39°33' W 074°10'8 8.8
2015-Jul-28 21:33N 39°40' W 074°03'9 8.5
2015-Jul-28 20:33N 39°47' W 073°58'9 8.7
2015-Jul-28 19:33N 39°56' W 073°57'9 8.6
2015-Jul-28 18:31N 40°05' W 073°55'9 8.5
2015-Jul-28 17:31N 40°13' W 073°54'8 8.6
2015-Jul-28 16:33N 40°22' W 073°54'9 8.6
2015-Jul-28 15:33N 40°30' W 073°57'10 9.6
2015-Jul-28 14:34N 40°38' W 074°04'5 5.0
2015-Jul-28 13:33N 40°41' W 074°08'0 0.1
2015-Jul-28 12:33N 40°42' W 074°08'1 0.9
2015-Jul-28 11:33N 40°41' W 074°09'3 3.1
2015-Jul-28 10:33N 40°39' W 074°05'0 0.4
2015-Jul-28 09:33N 40°39' W 074°06'0 0.0
2015-Jul-28 08:33N 40°39' W 074°06'0 0.0
2015-Jul-28 07:33N 40°39' W 074°06'0 0.0
2015-Jul-28 06:33N 40°39' W 074°06'0 0.0
2015-Jul-28 05:33N 40°39' W 074°06'0 0.0
2015-Jul-28 04:33N 40°39' W 074°06'0 0.0
2015-Jul-28 03:33N 40°39' W 074°06'0 0.0
2015-Jul-28 02:31N 40°39' W 074°06'3 3.5
2015-Jul-28 01:33N 40°42' W 074°08'3 3.4
2015-Jul-28 00:33N 40°39' W 074°11'2 1.6
2015-Jul-27 23:33N 40°38' W 074°12'0 0.0
2015-Jul-27 22:33N 40°38' W 074°12'0 0.0
2015-Jul-27 21:32N 40°38' W 074°12'5 4.5
2015-Jul-27 20:29N 40°39' W 074°06'0 0.1
2015-Jul-27 19:34N 40°39' W 074°06'2 2.4
2015-Jul-27 18:33N 40°41' W 074°08'1 1.1
2015-Jul-27 17:33N 40°41' W 074°09'1 1.3
2015-Jul-27 16:33N 40°40' W 074°08'5 5.0
2015-Jul-27 15:33N 40°39' W 074°02'1 0.8
2015-Jul-27 14:33N 40°39' W 074°03'7 6.1
2015-Jul-27 13:23N 40°38' W 074°12'0 0.0
2015-Jul-27 12:21N 40°38' W 074°12'0 0.0
2015-Jul-27 11:30N 40°38' W 074°12'0 0.0
2015-Jul-27 10:31N 40°38' W 074°12'0 0.0
2015-Jul-27 07:21N 40°38' W 074°12'0 0.0
2015-Jul-27 06:22N 40°38' W 074°12'0 0.0
2015-Jul-27 05:28N 40°38' W 074°12'0 0.0
2015-Jul-27 04:29N 40°38' W 074°12'0 0.0
2015-Jul-27 03:30N 40°38' W 074°12'0 0.0
2015-Jul-27 02:30N 40°38' W 074°12'0 0.0
2015-Jul-27 00:26N 40°38' W 074°12'0 0.0
2015-Jul-26 22:21N 40°38' W 074°12'0 0.0
2015-Jul-26 21:10N 40°38' W 074°12'0 0.0
2015-Jul-26 20:28N 40°38' W 074°12'0 0.0
2015-Jul-26 19:17N 40°38' W 074°12'0 0.0
2015-Jul-26 18:12N 40°38' W 074°12'0 0.0
2015-Jul-26 17:18N 40°38' W 074°12'0 0.0
2015-Jul-26 16:19N 40°38' W 074°12'0 0.0
2015-Jul-26 15:31N 40°38' W 074°12'0 0.0
2015-Jul-26 14:32N 40°38' W 074°12'0 0.0
2015-Jul-26 13:33N 40°38' W 074°12'0 0.0
2015-Jul-26 11:33N 40°38' W 074°12'2 2.3
2015-Jul-26 10:31N 40°39' W 074°09'5 5.2
2015-Jul-26 09:34N 40°39' W 074°03'0 0.2
2015-Jul-26 08:05N 40°39' W 074°02'0 0.0
2015-Jul-26 07:20N 40°39' W 074°02'0 0.1
2015-Jul-26 06:33N 40°39' W 074°02'0 0.0
2015-Jul-26 05:33N 40°39' W 074°02'0 0.1
2015-Jul-26 04:31N 40°39' W 074°02'0 0.1
2015-Jul-26 03:32N 40°39' W 074°03'0 0.0
2015-Jul-26 02:32N 40°39' W 074°03'0 0.0
2015-Jul-26 01:33N 40°39' W 074°03'0 0.1
2015-Jul-26 00:31N 40°39' W 074°03'0 0.1
2015-Jul-25 23:31N 40°39' W 074°03'0 0.0
2015-Jul-25 22:32N 40°39' W 074°02'0 0.0
2015-Jul-25 21:33N 40°39' W 074°02'1 0.6
2015-Jul-25 20:33N 40°39' W 074°02'1 1.3
2015-Jul-25 19:31N 40°40' W 074°00'0 0.0
2015-Jul-25 18:31N 40°40' W 074°00'2 2.0
2015-Jul-25 17:33N 40°39' W 074°02'4 4.2
2015-Jul-25 16:33N 40°43' W 073°59'7 6.7
2015-Jul-25 15:33N 40°48' W 073°54'8 7.0
2015-Jul-25 14:27N 40°52' W 073°45'17 7.9
2015-Jul-25 12:22N 40°60' W 073°26'7 9.0
2015-Jul-25 11:33N 41°01' W 073°17'33 9.7
2015-Jul-25 08:06N 41°09' W 072°34'610.2
2015-Jul-25 07:33N 41°11' W 072°26'1110.3
2015-Jul-25 06:30N 41°14' W 072°12'18 9.5
2015-Jul-25 04:33N 41°16' W 071°48'9 9.0
2015-Jul-25 03:33N 41°18' W 071°36'12 8.9
2015-Jul-25 02:13N 41°18' W 071°20'98 7.7
2015-Jul-24 13:33N 42°50' W 070°36'4 0.2
2015-Jul-23 18:08N 42°54' W 070°38'4 7.1
2015-Jul-23 17:33N 42°50' W 070°36'7 7.0
2015-Jul-23 16:33N 42°43' W 070°33'80 6.1
2015-Jul-23 03:32N 41°26' W 071°01'7 7.0
2015-Jul-23 02:33N 41°23' W 071°08'7 7.0
2015-Jul-23 01:33N 41°19' W 071°16'7 7.0
2015-Jul-23 00:33N 41°18' W 071°26'8 7.8
2015-Jul-22 23:33N 41°18' W 071°36'8 7.8
2015-Jul-22 22:33N 41°16' W 071°46'8 8.0
2015-Jul-22 21:33N 41°15' W 071°57'7 7.5
2015-Jul-22 20:33N 41°14' W 072°06'7 6.6
2015-Jul-22 19:31N 41°13' W 072°15'4 4.1
2015-Jul-22 18:34N 41°12' W 072°20'7 6.8
2015-Jul-22 17:33N 41°10' W 072°29'6 6.5
2015-Jul-22 16:34N 41°11' W 072°38'7 7.0
2015-Jul-22 15:34N 41°11' W 072°47'7 3.4
2015-Jul-22 13:33N 41°12' W 072°56'9 9.0
2015-Jul-22 12:33N 41°07' W 073°06'9 9.3
2015-Jul-22 11:33N 41°03' W 073°17'10 9.7
2015-Jul-22 10:32N 40°59' W 073°29'10 9.2
2015-Jul-22 09:27N 40°54' W 073°41'8 7.9
2015-Jul-22 08:26N 40°48' W 073°47'6 6.5
2015-Jul-22 07:29N 40°47' W 073°55'6 6.7
2015-Jul-22 06:33N 40°42' W 074°00'3 2.9
2015-Jul-22 05:33N 40°39' W 074°02'0 0.0
2015-Jul-22 04:31N 40°39' W 074°02'0 0.0
2015-Jul-22 03:31N 40°39' W 074°02'1 1.4
2015-Jul-22 02:33N 40°39' W 074°04'6 6.5
2015-Jul-22 01:34N 40°38' W 074°12'0 0.1
2015-Jul-22 00:24N 40°38' W 074°12'0 0.1
2015-Jul-21 23:33N 40°38' W 074°12'0 0.0
2015-Jul-21 22:24N 40°38' W 074°12'0 0.0
2015-Jul-21 20:33N 40°38' W 074°12'3 2.8
2015-Jul-21 19:28N 40°40' W 074°09'3 3.4
2015-Jul-21 18:34N 40°39' W 074°05'4 3.7
2015-Jul-21 17:32N 40°40' W 074°00'0 0.0
2015-Jul-21 16:33N 40°40' W 074°01'0 0.0
2015-Jul-21 15:33N 40°40' W 074°01'0 0.0
2015-Jul-21 14:28N 40°40' W 074°01'0 0.0
2015-Jul-21 13:31N 40°40' W 074°01'1 0.7
2015-Jul-21 12:33N 40°40' W 074°01'1 1.1
2015-Jul-21 11:33N 40°39' W 074°02'2 1.8
2015-Jul-21 10:32N 40°40' W 074°01'4 3.9
2015-Jul-21 09:34N 40°39' W 074°05'1 1.2
2015-Jul-21 08:32N 40°40' W 074°05'0 0.0
2015-Jul-21 07:33N 40°40' W 074°05'0 0.0
2015-Jul-21 06:33N 40°40' W 074°05'0 0.0
2015-Jul-21 05:31N 40°40' W 074°05'0 0.0
2015-Jul-21 04:32N 40°40' W 074°05'0 0.4
2015-Jul-21 03:33N 40°40' W 074°05'1 1.4
2015-Jul-21 02:33N 40°40' W 074°03'2 1.8
2015-Jul-21 01:32N 40°40' W 074°05'0 0.0
2015-Jul-21 00:33N 40°40' W 074°05'0 0.0
2015-Jul-20 23:33N 40°40' W 074°05'2 1.7
2015-Jul-20 22:34N 40°40' W 074°03'7 6.8
2015-Jul-20 21:34N 40°38' W 074°12'1 0.8
2015-Jul-20 20:32N 40°38' W 074°12'0 0.0
2015-Jul-20 19:30N 40°38' W 074°12'0 0.0
2015-Jul-20 18:33N 40°38' W 074°12'0 0.0
2015-Jul-20 14:12N 40°38' W 074°12'0 0.1
2015-Jul-20 12:33N 40°38' W 074°12'7 7.4
2015-Jul-20 11:33N 40°39' W 074°03'0 0.4
2015-Jul-20 10:33N 40°39' W 074°02'0 0.0
2015-Jul-20 09:33N 40°39' W 074°02'0 0.0
2015-Jul-20 08:31N 40°39' W 074°02'0 0.0
2015-Jul-20 07:32N 40°39' W 074°02'0 0.0
2015-Jul-20 06:32N 40°39' W 074°02'0 0.1
2015-Jul-20 05:33N 40°39' W 074°02'2 1.5
2015-Jul-20 04:33N 40°40' W 074°00'0 0.0
2015-Jul-20 03:31N 40°40' W 074°00'0 0.0
2015-Jul-20 02:33N 40°40' W 074°00'3 3.0
2015-Jul-20 01:33N 40°38' W 074°04'5 4.9
2015-Jul-20 00:33N 40°41' W 074°09'0 0.0
2015-Jul-19 23:31N 40°41' W 074°09'0 0.0
2015-Jul-19 22:32N 40°41' W 074°09'0 0.0
2015-Jul-19 21:29N 40°41' W 074°09'0 0.0
2015-Jul-19 20:33N 40°41' W 074°09'0 0.0
2015-Jul-19 19:31N 40°41' W 074°09'0 0.0
2015-Jul-19 18:31N 40°41' W 074°09'0 0.0
2015-Jul-19 17:33N 40°41' W 074°09'3 2.9
2015-Jul-19 16:31N 40°39' W 074°06'0 0.0
2015-Jul-19 15:33N 40°39' W 074°06'1 0.6
2015-Jul-19 14:32N 40°39' W 074°06'0 0.0
2015-Jul-19 13:33N 40°39' W 074°06'0 0.0
2015-Jul-19 12:34N 40°39' W 074°06'0 0.0
2015-Jul-19 11:31N 40°39' W 074°06'0 0.0
2015-Jul-19 10:32N 40°39' W 074°06'2 1.7
2015-Jul-19 09:33N 40°40' W 074°05'0 0.2
2015-Jul-19 08:33N 40°40' W 074°05'0 0.0
2015-Jul-19 07:33N 40°40' W 074°05'0 0.0
2015-Jul-19 06:33N 40°40' W 074°05'0 0.0
2015-Jul-19 05:33N 40°40' W 074°05'0 0.0
2015-Jul-19 04:33N 40°40' W 074°05'  
Track history (hours):
 
Tides and Currents Weather Stations Pressure Air Temp Water Temp Dewpoint Dewpoint Depression Visibility Wind Speed Wind Dir Waves Ship Positions

Susquehanna

Owner: Vane Line Bunkering, Inc., Baltimore, MD. More information available from US FCC via Universal Licensing System and Coast Guard Vessel Documentation Center.

Last reported at 2015-Jul-29 04:33 UTC. Time now 2015-Jul-29 04:56 UTC.
Position N 38°51' W 074°49'.

Length 28 m; draft 4.2 m.

Type: Tug. MMSI: 367318750.

Date/timePositionNaut miles runAvg speedWind from/ knotsBaromVisibWave heightAir tempDewpointWater temp
2015-Jul-29 04:33N 38°51' W 074°49'11 8.7
2015-Jul-29 03:18N 38°59' W 074°41'10 8.6
2015-Jul-29 02:05N 39°08' W 074°33'5 8.7
2015-Jul-29 01:33N 39°11' W 074°29'9 8.6
2015-Jul-29 00:33N 39°18' W 074°22'8 8.4
2015-Jul-28 23:33N 39°25' W 074°16'10 8.9
2015-Jul-28 22:28N 39°33' W 074°10'8 8.8
2015-Jul-28 21:33N 39°40' W 074°03'9 8.5
2015-Jul-28 20:33N 39°47' W 073°58'9 8.7
2015-Jul-28 19:33N 39°56' W 073°57'9 8.6
2015-Jul-28 18:31N 40°05' W 073°55'9 8.5
2015-Jul-28 17:31N 40°13' W 073°54'8 8.6
2015-Jul-28 16:33N 40°22' W 073°54'9 8.6
2015-Jul-28 15:33N 40°30' W 073°57'10 9.6
2015-Jul-28 14:34N 40°38' W 074°04'5 5.0
2015-Jul-28 13:33N 40°41' W 074°08'0 0.1
2015-Jul-28 12:33N 40°42' W 074°08'1 0.9
2015-Jul-28 11:33N 40°41' W 074°09'3 3.1
2015-Jul-28 10:33N 40°39' W 074°05'0 0.4
2015-Jul-28 09:33N 40°39' W 074°06'0 0.0
2015-Jul-28 08:33N 40°39' W 074°06'0 0.0
2015-Jul-28 07:33N 40°39' W 074°06'0 0.0
2015-Jul-28 06:33N 40°39' W 074°06'0 0.0
2015-Jul-28 05:33N 40°39' W 074°06'0 0.0
2015-Jul-28 04:33N 40°39' W 074°06'0 0.0
2015-Jul-28 03:33N 40°39' W 074°06'0 0.0
2015-Jul-28 02:31N 40°39' W 074°06'3 3.5
2015-Jul-28 01:33N 40°42' W 074°08'3 3.4
2015-Jul-28 00:33N 40°39' W 074°11'2 1.6
2015-Jul-27 23:33N 40°38' W 074°12'0 0.0
2015-Jul-27 22:33N 40°38' W 074°12'0 0.0
2015-Jul-27 21:32N 40°38' W 074°12'5 4.5
2015-Jul-27 20:29N 40°39' W 074°06'0 0.1
2015-Jul-27 19:34N 40°39' W 074°06'2 2.4
2015-Jul-27 18:33N 40°41' W 074°08'1 1.1
2015-Jul-27 17:33N 40°41' W 074°09'1 1.3
2015-Jul-27 16:33N 40°40' W 074°08'5 5.0
2015-Jul-27 15:33N 40°39' W 074°02'1 0.8
2015-Jul-27 14:33N 40°39' W 074°03'7 6.1
2015-Jul-27 13:23N 40°38' W 074°12'0 0.0
2015-Jul-27 12:21N 40°38' W 074°12'0 0.0
2015-Jul-27 11:30N 40°38' W 074°12'0 0.0
2015-Jul-27 10:31N 40°38' W 074°12'0 0.0
2015-Jul-27 07:21N 40°38' W 074°12'0 0.0
2015-Jul-27 06:22N 40°38' W 074°12'0 0.0
2015-Jul-27 05:28N 40°38' W 074°12'0 0.0
2015-Jul-27 04:29N 40°38' W 074°12'0 0.0
2015-Jul-27 03:30N 40°38' W 074°12'0 0.0
2015-Jul-27 02:30N 40°38' W 074°12'0 0.0
2015-Jul-27 00:26N 40°38' W 074°12'0 0.0
2015-Jul-26 22:21N 40°38' W 074°12'0 0.0
2015-Jul-26 21:10N 40°38' W 074°12'0 0.0
2015-Jul-26 20:28N 40°38' W 074°12'0 0.0
2015-Jul-26 19:17N 40°38' W 074°12'0 0.0
2015-Jul-26 18:12N 40°38' W 074°12'0 0.0
2015-Jul-26 17:18N 40°38' W 074°12'0 0.0
2015-Jul-26 16:19N 40°38' W 074°12'0 0.0
2015-Jul-26 15:31N 40°38' W 074°12'0 0.0
2015-Jul-26 14:32N 40°38' W 074°12'0 0.0
2015-Jul-26 13:33N 40°38' W 074°12'0 0.0
2015-Jul-26 11:33N 40°38' W 074°12'2 2.3
2015-Jul-26 10:31N 40°39' W 074°09'5 5.2
2015-Jul-26 09:34N 40°39' W 074°03'0 0.2
2015-Jul-26 08:05N 40°39' W 074°02'0 0.0
2015-Jul-26 07:20N 40°39' W 074°02'0 0.1
2015-Jul-26 06:33N 40°39' W 074°02'0 0.0
2015-Jul-26 05:33N 40°39' W 074°02'0 0.1
2015-Jul-26 04:31N 40°39' W 074°02'0 0.1
2015-Jul-26 03:32N 40°39' W 074°03'0 0.0
2015-Jul-26 02:32N 40°39' W 074°03'0 0.0
2015-Jul-26 01:33N 40°39' W 074°03'0 0.1
2015-Jul-26 00:31N 40°39' W 074°03'0 0.1
2015-Jul-25 23:31N 40°39' W 074°03'0 0.0
2015-Jul-25 22:32N 40°39' W 074°02'0 0.0
2015-Jul-25 21:33N 40°39' W 074°02'1 0.6
2015-Jul-25 20:33N 40°39' W 074°02'1 1.3
2015-Jul-25 19:31N 40°40' W 074°00'0 0.0
2015-Jul-25 18:31N 40°40' W 074°00'2 2.0
2015-Jul-25 17:33N 40°39' W 074°02'4 4.2
2015-Jul-25 16:33N 40°43' W 073°59'7 6.7
2015-Jul-25 15:33N 40°48' W 073°54'8 7.0
2015-Jul-25 14:27N 40°52' W 073°45'17 7.9
2015-Jul-25 12:22N 40°60' W 073°26'7 9.0
2015-Jul-25 11:33N 41°01' W 073°17'33 9.7
2015-Jul-25 08:06N 41°09' W 072°34'610.2
2015-Jul-25 07:33N 41°11' W 072°26'1110.3
2015-Jul-25 06:30N 41°14' W 072°12'18 9.5
2015-Jul-25 04:33N 41°16' W 071°48'9 9.0
2015-Jul-25 03:33N 41°18' W 071°36'12 8.9
2015-Jul-25 02:13N 41°18' W 071°20'98 7.7
2015-Jul-24 13:33N 42°50' W 070°36'4 0.2
2015-Jul-23 18:08N 42°54' W 070°38'4 7.1
2015-Jul-23 17:33N 42°50' W 070°36'7 7.0
2015-Jul-23 16:33N 42°43' W 070°33'80 6.1
2015-Jul-23 03:32N 41°26' W 071°01'7 7.0
2015-Jul-23 02:33N 41°23' W 071°08'7 7.0
2015-Jul-23 01:33N 41°19' W 071°16'7 7.0
2015-Jul-23 00:33N 41°18' W 071°26'8 7.8
2015-Jul-22 23:33N 41°18' W 071°36'8 7.8
2015-Jul-22 22:33N 41°16' W 071°46'8 8.0
2015-Jul-22 21:33N 41°15' W 071°57'7 7.5
2015-Jul-22 20:33N 41°14' W 072°06'7 6.6
2015-Jul-22 19:31N 41°13' W 072°15'4 4.1
2015-Jul-22 18:34N 41°12' W 072°20'7 6.8
2015-Jul-22 17:33N 41°10' W 072°29'6 6.5
2015-Jul-22 16:34N 41°11' W 072°38'7 7.0
2015-Jul-22 15:34N 41°11' W 072°47'7 3.4
2015-Jul-22 13:33N 41°12' W 072°56'9 9.0
2015-Jul-22 12:33N 41°07' W 073°06'9 9.3
2015-Jul-22 11:33N 41°03' W 073°17'10 9.7
2015-Jul-22 10:32N 40°59' W 073°29'10 9.2
2015-Jul-22 09:27N 40°54' W 073°41'8 7.9
2015-Jul-22 08:26N 40°48' W 073°47'6 6.5
2015-Jul-22 07:29N 40°47' W 073°55'6 6.7
2015-Jul-22 06:33N 40°42' W 074°00'3 2.9
2015-Jul-22 05:33N 40°39' W 074°02'0 0.0
2015-Jul-22 04:31N 40°39' W 074°02'0 0.0
2015-Jul-22 03:31N 40°39' W 074°02'1 1.4
2015-Jul-22 02:33N 40°39' W 074°04'6 6.5
2015-Jul-22 01:34N 40°38' W 074°12'0 0.1
2015-Jul-22 00:24N 40°38' W 074°12'0 0.1
2015-Jul-21 23:33N 40°38' W 074°12'0 0.0
2015-Jul-21 22:24N 40°38' W 074°12'0 0.0
2015-Jul-21 20:33N 40°38' W 074°12'3 2.8
2015-Jul-21 19:28N 40°40' W 074°09'3 3.4
2015-Jul-21 18:34N 40°39' W 074°05'4 3.7
2015-Jul-21 17:32N 40°40' W 074°00'0 0.0
2015-Jul-21 16:33N 40°40' W 074°01'0 0.0
2015-Jul-21 15:33N 40°40' W 074°01'0 0.0
2015-Jul-21 14:28N 40°40' W 074°01'0 0.0
2015-Jul-21 13:31N 40°40' W 074°01'1 0.7
2015-Jul-21 12:33N 40°40' W 074°01'1 1.1
2015-Jul-21 11:33N 40°39' W 074°02'2 1.8
2015-Jul-21 10:32N 40°40' W 074°01'4 3.9
2015-Jul-21 09:34N 40°39' W 074°05'1 1.2
2015-Jul-21 08:32N 40°40' W 074°05'0 0.0
2015-Jul-21 07:33N 40°40' W 074°05'0 0.0
2015-Jul-21 06:33N 40°40' W 074°05'0 0.0
2015-Jul-21 05:31N 40°40' W 074°05'0 0.0
2015-Jul-21 04:32N 40°40' W 074°05'0 0.4
2015-Jul-21 03:33N 40°40' W 074°05'1 1.4
2015-Jul-21 02:33N 40°40' W 074°03'2 1.8
2015-Jul-21 01:32N 40°40' W 074°05'0 0.0
2015-Jul-21 00:33N 40°40' W 074°05'0 0.0
2015-Jul-20 23:33N 40°40' W 074°05'2 1.7
2015-Jul-20 22:34N 40°40' W 074°03'7 6.8
2015-Jul-20 21:34N 40°38' W 074°12'1 0.8
2015-Jul-20 20:32N 40°38' W 074°12'0 0.0
2015-Jul-20 19:30N 40°38' W 074°12'0 0.0
2015-Jul-20 18:33N 40°38' W 074°12'0 0.0
2015-Jul-20 14:12N 40°38' W 074°12'0 0.1
2015-Jul-20 12:33N 40°38' W 074°12'7 7.4
2015-Jul-20 11:33N 40°39' W 074°03'0 0.4
2015-Jul-20 10:33N 40°39' W 074°02'0 0.0
2015-Jul-20 09:33N 40°39' W 074°02'0 0.0
2015-Jul-20 08:31N 40°39' W 074°02'0 0.0
2015-Jul-20 07:32N 40°39' W 074°02'0 0.0
2015-Jul-20 06:32N 40°39' W 074°02'0 0.1
2015-Jul-20 05:33N 40°39' W 074°02'2 1.5
2015-Jul-20 04:33N 40°40' W 074°00'0 0.0
2015-Jul-20 03:31N 40°40' W 074°00'0 0.0
2015-Jul-20 02:33N 40°40' W 074°00'3 3.0
2015-Jul-20 01:33N 40°38' W 074°04'5 4.9
2015-Jul-20 00:33N 40°41' W 074°09'0 0.0
2015-Jul-19 23:31N 40°41' W 074°09'0 0.0
2015-Jul-19 22:32N 40°41' W 074°09'0 0.0
2015-Jul-19 21:29N 40°41' W 074°09'0 0.0
2015-Jul-19 20:33N 40°41' W 074°09'0 0.0
2015-Jul-19 19:31N 40°41' W 074°09'0 0.0
2015-Jul-19 18:31N 40°41' W 074°09'0 0.0
2015-Jul-19 17:33N 40°41' W 074°09'3 2.9
2015-Jul-19 16:31N 40°39' W 074°06'0 0.0
2015-Jul-19 15:33N 40°39' W 074°06'1 0.6
2015-Jul-19 14:32N 40°39' W 074°06'0 0.0
2015-Jul-19 13:33N 40°39' W 074°06'0 0.0
2015-Jul-19 12:34N 40°39' W 074°06'0 0.0
2015-Jul-19 11:31N 40°39' W 074°06'0 0.0
2015-Jul-19 10:32N 40°39' W 074°06'2 1.7
2015-Jul-19 09:33N 40°40' W 074°05'0 0.2
2015-Jul-19 08:33N 40°40' W 074°05'0 0.0
2015-Jul-19 07:33N 40°40' W 074°05'0 0.0
2015-Jul-19 06:33N 40°40' W 074°05'0 0.0
2015-Jul-19 05:33N 40°40' W 074°05'0 0.0
2015-Jul-19 04:33N 40°40' W 074°05'  

Dump ship's entire track history